createdAt,value
2022-11-24T00:01:24.727Z,13.71
2022-11-24T00:03:56.918Z,13.77
2022-11-24T00:06:24.478Z,13.84
2022-11-24T00:08:51.513Z,13.91
2022-11-24T00:11:24.324Z,13.97
2022-11-24T00:13:51.002Z,14.04
2022-11-24T00:16:23.615Z,14.09
2022-11-24T00:18:53.029Z,14.18
2022-11-24T00:21:20.869Z,14.24
2022-11-24T00:23:48.780Z,14.32
2022-11-24T00:26:20.851Z,14.38
2022-11-24T00:28:49.447Z,14.46
2022-11-24T00:31:18.066Z,14.55
2022-11-24T00:33:47.419Z,14.63
2022-11-24T00:36:14.372Z,14.67
2022-11-24T00:38:41.368Z,14.72
2022-11-24T00:41:07.707Z,14.73
2022-11-24T00:43:34.467Z,14.75
2022-11-24T00:46:01.072Z,14.76
2022-11-24T00:48:28.000Z,14.75
2022-11-24T00:51:03.990Z,14.71
2022-11-24T00:53:30.696Z,14.71
2022-11-24T00:55:57.396Z,14.69
2022-11-24T00:58:24.585Z,14.67
2022-11-24T01:00:52.757Z,14.62
2022-11-24T01:03:22.723Z,14.60
2022-11-24T01:05:49.455Z,14.59
2022-11-24T01:08:15.880Z,14.56
2022-11-24T01:10:42.396Z,14.54
2022-11-24T01:13:09.204Z,14.51
2022-11-24T01:15:36.633Z,14.48
2022-11-24T01:18:04.186Z,14.43
2022-11-24T01:20:31.962Z,14.41
2022-11-24T01:22:58.580Z,14.40
2022-11-24T01:25:28.101Z,14.36
2022-11-24T01:27:54.510Z,14.35
2022-11-24T01:30:23.005Z,14.33
2022-11-24T01:32:49.296Z,14.33
2022-11-24T01:35:15.693Z,14.33
2022-11-24T01:37:42.049Z,14.30
2022-11-24T01:40:09.298Z,14.27
2022-11-24T01:42:52.642Z,14.22
2022-11-24T01:45:41.231Z,14.20
2022-11-24T01:48:15.100Z,14.23
2022-11-24T01:50:43.238Z,14.25
2022-11-24T01:53:12.550Z,14.24
2022-11-24T01:55:39.857Z,14.23
2022-11-24T01:58:13.892Z,14.22
2022-11-24T02:00:44.223Z,14.22
2022-11-24T02:03:15.383Z,14.21
2022-11-24T02:06:05.546Z,14.21
2022-11-24T02:08:39.630Z,14.20
2022-11-24T02:11:06.662Z,14.19
2022-11-24T02:13:38.468Z,14.15
2022-11-24T02:16:11.239Z,14.15
2022-11-24T02:18:43.164Z,14.13
2022-11-24T02:21:12.058Z,14.11
2022-11-24T02:24:02.589Z,14.07
2022-11-24T02:26:39.405Z,14.07
2022-11-24T02:29:06.365Z,14.07
2022-11-24T02:31:33.190Z,14.06
2022-11-24T02:33:59.780Z,14.05
2022-11-24T02:36:26.239Z,14.05
2022-11-24T02:38:52.775Z,14.05
2022-11-24T02:41:21.725Z,14.05
2022-11-24T02:43:56.572Z,14.05
2022-11-24T02:46:23.294Z,14.09
2022-11-24T02:48:49.952Z,14.14
2022-11-24T02:51:17.053Z,14.18
2022-11-24T02:53:43.515Z,14.23
2022-11-24T02:56:09.941Z,14.27
2022-11-24T02:58:36.869Z,14.32
2022-11-24T03:01:04.184Z,14.37
2022-11-24T03:03:31.436Z,14.42
2022-11-24T03:05:58.031Z,14.47
2022-11-24T03:08:24.407Z,14.50
2022-11-24T03:10:51.005Z,14.56
2022-11-24T03:13:17.557Z,14.60
2022-11-24T03:15:44.060Z,14.65
2022-11-24T03:18:10.658Z,14.67
2022-11-24T03:20:37.317Z,14.71
2022-11-24T03:23:03.701Z,14.72
2022-11-24T03:25:30.106Z,14.74
2022-11-24T03:27:58.027Z,14.77
2022-11-24T03:30:24.438Z,14.80
2022-11-24T03:32:53.761Z,14.82
2022-11-24T03:35:21.033Z,14.86
2022-11-24T03:37:48.268Z,14.89
2022-11-24T03:40:15.077Z,14.93
2022-11-24T03:42:41.434Z,14.95
2022-11-24T03:47:54.835Z,15.00
2022-11-24T03:50:22.490Z,15.03
2022-11-24T03:52:50.213Z,15.03
2022-11-24T03:55:17.851Z,15.06
2022-11-24T03:57:44.194Z,15.08
2022-11-24T04:00:12.012Z,15.08
2022-11-24T04:02:38.704Z,15.10
2022-11-24T04:05:06.317Z,15.12
2022-11-24T04:07:32.784Z,15.14
2022-11-24T04:09:59.286Z,15.13
2022-11-24T04:12:43.980Z,15.12
2022-11-24T04:15:19.150Z,15.09
2022-11-24T04:17:46.607Z,15.09
2022-11-24T04:20:14.095Z,15.09
2022-11-24T04:22:40.565Z,15.08
2022-11-24T04:25:08.394Z,15.06
2022-11-24T04:27:36.586Z,15.06
2022-11-24T04:30:05.140Z,15.06
2022-11-24T04:32:31.719Z,15.07
2022-11-24T04:34:58.141Z,15.11
2022-11-24T04:37:24.709Z,15.09
2022-11-24T04:39:52.368Z,15.08
2022-11-24T04:42:18.721Z,15.08
2022-11-24T04:44:45.215Z,15.07
2022-11-24T04:47:16.919Z,15.07
2022-11-24T04:49:43.310Z,15.08
2022-11-24T04:52:10.945Z,15.09
2022-11-24T04:54:37.296Z,15.12
2022-11-24T04:57:03.897Z,15.13
2022-11-24T04:59:30.292Z,15.14
2022-11-24T05:01:56.663Z,15.16
2022-11-24T05:04:23.266Z,15.17
2022-11-24T05:06:50.602Z,15.19
2022-11-24T05:09:17.876Z,15.20
2022-11-24T05:11:44.268Z,15.21
2022-11-24T05:14:10.641Z,15.21
2022-11-24T05:16:38.000Z,15.21
2022-11-24T05:19:04.656Z,15.20
2022-11-24T05:21:31.050Z,15.16
2022-11-24T05:23:57.440Z,15.14
2022-11-24T05:26:23.798Z,15.11
2022-11-24T05:28:50.563Z,15.09
2022-11-24T05:31:17.162Z,15.07
2022-11-24T05:33:43.576Z,15.04
2022-11-24T05:36:30.163Z,15.01
2022-11-24T05:38:56.950Z,15.01
2022-11-24T05:41:23.356Z,15.01
2022-11-24T05:43:49.722Z,14.97
2022-11-24T05:46:16.531Z,14.97
2022-11-24T05:48:45.431Z,14.96
2022-11-24T05:51:11.849Z,14.96
2022-11-24T05:53:38.185Z,14.96
2022-11-24T05:56:05.252Z,14.95
2022-11-24T05:58:31.814Z,14.96
2022-11-24T06:00:58.219Z,14.97
2022-11-24T06:03:24.673Z,14.98
2022-11-24T06:05:53.332Z,14.97
2022-11-24T06:08:19.624Z,14.99
2022-11-24T06:10:45.988Z,15.03
2022-11-24T06:13:12.422Z,15.02
2022-11-24T06:15:40.497Z,15.01
2022-11-24T06:18:06.939Z,15.00
2022-11-24T06:20:33.518Z,15.00
2022-11-24T06:23:00.688Z,14.98
2022-11-24T06:25:28.535Z,14.95
2022-11-24T06:27:55.030Z,14.94
2022-11-24T06:30:24.408Z,14.92
2022-11-24T06:32:55.089Z,14.89
2022-11-24T06:35:21.702Z,14.90
2022-11-24T06:37:48.122Z,14.89
2022-11-24T06:40:14.584Z,14.88
2022-11-24T06:42:40.956Z,14.88
2022-11-24T06:45:09.644Z,14.88
2022-11-24T06:47:36.577Z,14.88
2022-11-24T06:50:03.552Z,14.88
2022-11-24T06:52:30.118Z,14.90
2022-11-24T06:54:57.376Z,14.91
2022-11-24T06:57:23.739Z,14.93
2022-11-24T06:59:50.176Z,14.94
2022-11-24T07:02:16.664Z,14.95
2022-11-24T07:04:43.036Z,14.97
2022-11-24T07:07:10.485Z,14.97
2022-11-24T07:09:37.078Z,14.98
2022-11-24T07:12:04.726Z,15.00
2022-11-24T07:14:31.739Z,15.01
2022-11-24T07:16:58.443Z,15.03
2022-11-24T07:19:25.417Z,15.04
2022-11-24T07:21:52.008Z,15.05
2022-11-24T07:24:18.933Z,15.07
2022-11-24T07:26:45.424Z,15.11
2022-11-24T07:29:14.690Z,15.11
2022-11-24T07:31:43.384Z,15.15
2022-11-24T07:34:10.173Z,15.17
2022-11-24T07:36:38.458Z,15.19
2022-11-24T07:39:06.921Z,15.21
2022-11-24T07:41:33.533Z,15.25
2022-11-24T07:44:00.089Z,15.28
2022-11-24T07:46:27.559Z,15.31
2022-11-24T07:48:54.099Z,15.32
2022-11-24T07:51:22.203Z,15.35
2022-11-24T07:53:48.633Z,15.37
2022-11-24T07:56:15.189Z,15.38
2022-11-24T07:58:41.548Z,15.42
2022-11-24T08:01:21.388Z,15.41
2022-11-24T08:03:48.295Z,15.47
2022-11-24T08:06:26.093Z,15.48
2022-11-24T08:08:54.709Z,15.50
2022-11-24T08:11:21.234Z,15.53
2022-11-24T08:13:47.883Z,15.54
2022-11-24T08:16:17.288Z,15.56
2022-11-24T08:18:48.885Z,15.58
2022-11-24T08:21:15.501Z,15.61
2022-11-24T08:23:42.494Z,15.62
2022-11-24T08:26:13.675Z,15.62
2022-11-24T08:28:40.074Z,15.63
2022-11-24T08:31:11.732Z,15.65
2022-11-24T08:33:38.896Z,15.65
2022-11-24T08:36:07.570Z,15.65
2022-11-24T08:38:34.110Z,15.67
2022-11-24T08:41:05.278Z,15.67
2022-11-24T08:43:31.962Z,15.67
2022-11-24T08:46:03.259Z,15.64
2022-11-24T08:48:32.036Z,15.63
2022-11-24T08:50:59.446Z,15.59
2022-11-24T08:53:27.583Z,15.59
2022-11-24T08:56:00.079Z,15.55
2022-11-24T08:58:27.770Z,15.54
2022-11-24T09:00:54.370Z,15.52
2022-11-24T09:03:20.748Z,15.51
2022-11-24T09:05:52.050Z,15.50
2022-11-24T09:08:18.910Z,15.50
2022-11-24T09:10:45.367Z,15.48
2022-11-24T09:13:12.273Z,15.50
2022-11-24T09:15:38.580Z,15.50
2022-11-24T09:18:05.409Z,15.49
2022-11-24T09:20:31.987Z,15.50
2022-11-24T09:22:58.335Z,15.51
2022-11-24T09:25:24.682Z,15.51
2022-11-24T09:27:51.452Z,15.53
2022-11-24T09:30:18.152Z,15.53
2022-11-24T09:32:44.964Z,15.54
2022-11-24T09:35:11.738Z,15.56
2022-11-24T09:37:38.425Z,15.57
2022-11-24T09:40:05.507Z,15.59
2022-11-24T09:42:58.020Z,15.58
2022-11-24T09:46:04.895Z,15.60
2022-11-24T09:48:47.966Z,15.66
2022-11-24T09:51:15.860Z,15.70
2022-11-24T09:53:48.502Z,15.69
2022-11-24T09:56:21.983Z,15.71
2022-11-24T09:58:54.678Z,15.70
2022-11-24T10:01:26.336Z,15.73
2022-11-24T10:03:54.177Z,15.74
2022-11-24T10:06:43.888Z,15.70
2022-11-24T10:09:41.025Z,15.67
2022-11-24T10:12:30.473Z,15.68
2022-11-24T10:15:41.466Z,15.66
2022-11-24T10:18:31.878Z,15.66
2022-11-24T10:21:40.018Z,15.66
2022-11-24T10:24:16.099Z,15.71
2022-11-24T10:27:24.285Z,15.69
2022-11-24T10:29:52.025Z,15.73
2022-11-24T10:32:33.694Z,15.71
2022-11-24T10:35:14.170Z,15.70
2022-11-24T10:37:54.601Z,15.69
2022-11-24T10:40:59.124Z,15.69
2022-11-24T10:43:29.238Z,15.73
2022-11-24T10:46:08.389Z,15.74
2022-11-24T10:48:43.855Z,15.79
2022-11-24T10:51:30.191Z,15.83
2022-11-24T10:54:21.939Z,15.88
2022-11-24T10:56:51.414Z,15.94
2022-11-24T10:59:37.553Z,15.96
2022-11-24T11:02:29.569Z,15.99
2022-11-24T11:04:56.219Z,16.05
2022-11-24T11:07:25.231Z,16.06
2022-11-24T11:10:21.899Z,16.04
2022-11-24T11:12:49.472Z,16.07
2022-11-24T11:15:31.412Z,16.04
2022-11-24T11:18:00.757Z,16.10
2022-11-24T11:20:34.304Z,16.10
2022-11-24T11:23:13.967Z,16.12
2022-11-24T11:25:42.920Z,16.15
2022-11-24T11:28:24.409Z,16.13
2022-11-24T11:31:22.220Z,16.14
2022-11-24T11:34:03.647Z,16.15
2022-11-24T11:36:34.082Z,16.20
2022-11-24T11:39:00.618Z,16.21
2022-11-24T11:41:32.912Z,16.19
2022-11-24T11:44:25.784Z,16.22
2022-11-24T11:46:54.568Z,16.27
2022-11-24T11:49:21.061Z,16.32
2022-11-24T11:52:08.895Z,16.30
2022-11-24T11:55:05.475Z,16.33
2022-11-24T11:57:50.178Z,16.34
2022-11-24T12:00:20.277Z,16.37
2022-11-24T12:03:19.349Z,16.35
2022-11-24T12:06:23.435Z,16.37
2022-11-24T12:09:23.963Z,16.40
2022-11-24T12:12:19.417Z,16.43
2022-11-24T12:15:30.738Z,16.45
2022-11-24T12:18:55.360Z,16.48
2022-11-24T12:21:26.213Z,16.50
2022-11-24T12:24:05.079Z,16.52
2022-11-24T12:26:31.547Z,16.55
2022-11-24T12:29:16.299Z,16.58
2022-11-24T12:31:52.589Z,16.58
2022-11-24T12:34:35.279Z,16.56
2022-11-24T12:37:37.483Z,16.55
2022-11-24T12:40:31.540Z,16.56
2022-11-24T12:43:17.678Z,16.50
2022-11-24T12:45:55.948Z,16.48
2022-11-24T12:48:41.107Z,16.48
2022-11-24T12:51:16.770Z,16.43
2022-11-24T12:53:46.525Z,16.42
2022-11-24T12:56:16.448Z,16.40
2022-11-24T12:58:55.226Z,16.40
2022-11-24T13:01:21.918Z,16.41
2022-11-24T13:04:19.574Z,16.40
2022-11-24T13:06:55.644Z,16.47
2022-11-24T13:09:22.134Z,16.52
2022-11-24T13:11:51.444Z,16.56
2022-11-24T13:14:23.302Z,16.59
2022-11-24T13:17:28.834Z,16.61
2022-11-24T13:19:52.270Z,16.67
2022-11-24T13:22:26.154Z,16.66
2022-11-24T13:25:21.185Z,16.66
2022-11-24T13:27:52.307Z,16.69
2022-11-24T13:30:33.506Z,16.66
2022-11-24T13:33:16.492Z,16.64
2022-11-24T13:36:01.862Z,16.62
2022-11-24T13:38:45.569Z,16.61
2022-11-24T13:41:32.088Z,16.60
2022-11-24T13:44:13.716Z,16.60
2022-11-24T13:47:33.824Z,16.60
2022-11-24T13:50:01.716Z,16.65
2022-11-24T13:52:39.945Z,16.62
2022-11-24T13:55:12.416Z,16.62
2022-11-24T13:57:45.522Z,16.63
2022-11-24T14:00:36.557Z,16.60
2022-11-24T14:03:27.347Z,16.62
2022-11-24T14:05:54.435Z,16.67
2022-11-24T14:08:30.180Z,16.64
2022-11-24T14:10:58.610Z,16.65
2022-11-24T14:13:31.245Z,16.63
2022-11-24T14:16:14.128Z,16.61
2022-11-24T14:18:43.063Z,16.63
2022-11-24T14:21:27.856Z,16.62
2022-11-24T14:24:14.342Z,16.63
2022-11-24T14:26:41.319Z,16.61
2022-11-24T14:29:20.335Z,16.57
2022-11-24T14:32:01.925Z,16.54
2022-11-24T14:34:30.554Z,16.54
2022-11-24T14:36:57.479Z,16.54
2022-11-24T14:39:26.641Z,16.55
2022-11-24T14:42:04.006Z,16.50
2022-11-24T14:44:50.967Z,16.45
2022-11-24T14:47:39.022Z,16.40
2022-11-24T14:50:15.309Z,16.39
2022-11-24T14:52:52.480Z,16.35
2022-11-24T14:55:28.462Z,16.31
2022-11-24T14:57:55.434Z,16.29
2022-11-24T15:00:24.814Z,16.24
2022-11-24T15:03:01.234Z,16.19
2022-11-24T15:05:58.618Z,16.13
2022-11-24T15:08:27.996Z,16.13
2022-11-24T15:11:00.312Z,16.06
2022-11-24T15:13:29.691Z,16.01
2022-11-24T15:16:03.804Z,15.95
2022-11-24T15:18:43.018Z,15.88
2022-11-24T15:21:14.275Z,15.85
2022-11-24T15:24:09.434Z,15.74
2022-11-24T15:26:42.184Z,15.73
2022-11-24T15:29:10.941Z,15.66
2022-11-24T15:31:47.696Z,15.61
2022-11-24T15:34:37.645Z,15.56
2022-11-24T15:37:04.025Z,15.51
2022-11-24T15:39:30.416Z,15.43
2022-11-24T15:41:56.757Z,15.37
2022-11-24T15:44:23.284Z,15.29
2022-11-24T15:46:49.720Z,15.23
2022-11-24T15:49:16.192Z,15.16
2022-11-24T15:51:44.975Z,15.06
2022-11-24T15:54:15.060Z,15.01
2022-11-24T15:56:42.235Z,14.94
2022-11-24T15:59:20.680Z,14.83
2022-11-24T16:01:49.595Z,14.79
2022-11-24T16:04:16.501Z,14.70
2022-11-24T16:06:43.014Z,14.65
2022-11-24T16:09:14.423Z,14.55
2022-11-24T16:11:40.945Z,14.51
2022-11-24T16:14:07.506Z,14.44
2022-11-24T16:16:33.986Z,14.35
2022-11-24T16:19:00.510Z,14.29
2022-11-24T16:21:27.037Z,14.21
2022-11-24T16:23:54.023Z,14.15
2022-11-24T16:26:20.352Z,14.08
2022-11-24T16:28:46.703Z,14.02
2022-11-24T16:31:16.045Z,13.95
2022-11-24T16:33:44.478Z,13.89
2022-11-24T16:36:11.011Z,13.84
2022-11-24T16:38:37.346Z,13.78
2022-11-24T16:41:04.124Z,13.72
2022-11-24T16:43:30.866Z,13.66
2022-11-24T16:46:24.407Z,13.57
2022-11-24T16:48:54.202Z,13.56
2022-11-24T16:51:27.693Z,13.52
2022-11-24T16:54:01.581Z,13.48
2022-11-24T16:56:29.014Z,13.43
2022-11-24T16:58:55.418Z,13.38
2022-11-24T17:01:22.207Z,13.34
2022-11-24T17:03:48.557Z,13.32
2022-11-24T17:06:16.613Z,13.28
2022-11-24T17:08:44.811Z,13.25
2022-11-24T17:11:22.599Z,13.20
2022-11-24T17:13:49.813Z,13.20
2022-11-24T17:16:21.246Z,13.16
2022-11-24T17:18:48.433Z,13.13
2022-11-24T17:21:17.830Z,13.09
2022-11-24T17:23:44.766Z,13.07
2022-11-24T17:26:16.849Z,13.04
2022-11-24T17:28:44.072Z,13.01
2022-11-24T17:31:20.833Z,12.97
2022-11-24T17:33:48.336Z,12.97
2022-11-24T17:36:15.057Z,12.94
2022-11-24T17:38:41.557Z,12.92
2022-11-24T17:41:08.436Z,12.89
2022-11-24T17:43:34.767Z,12.86
2022-11-24T17:46:03.878Z,12.83
2022-11-24T17:48:31.294Z,12.79
2022-11-24T17:51:03.685Z,12.75
2022-11-24T17:53:31.328Z,12.75
2022-11-24T17:56:02.154Z,12.71
2022-11-24T17:58:29.954Z,12.70
2022-11-24T18:00:57.519Z,12.69
2022-11-24T18:03:25.573Z,12.69
2022-11-24T18:05:52.008Z,12.71
2022-11-24T18:08:18.326Z,12.72
2022-11-24T18:10:44.732Z,12.74
2022-11-24T18:13:27.470Z,12.76
2022-11-24T18:16:06.114Z,12.79
2022-11-24T18:18:36.611Z,12.85
2022-11-24T18:21:07.540Z,12.91
2022-11-24T18:23:35.833Z,12.95
2022-11-24T18:26:05.354Z,12.99
2022-11-24T18:28:32.367Z,13.06
2022-11-24T18:31:07.127Z,13.09
2022-11-24T18:33:37.846Z,13.16
2022-11-24T18:36:07.095Z,13.21
2022-11-24T18:38:37.052Z,13.26
2022-11-24T18:41:04.974Z,13.30
2022-11-24T18:43:31.511Z,13.34
2022-11-24T18:45:58.108Z,13.37
2022-11-24T18:48:26.091Z,13.41
2022-11-24T18:50:53.898Z,13.45
2022-11-24T18:53:21.589Z,13.50
2022-11-24T18:56:00.689Z,13.51
2022-11-24T18:58:29.989Z,13.57
2022-11-24T19:01:17.587Z,13.56
2022-11-24T19:03:48.637Z,13.60
2022-11-24T19:06:32.639Z,13.61
2022-11-24T19:09:02.378Z,13.65
2022-11-24T19:11:37.697Z,13.63
2022-11-24T19:14:06.241Z,13.66
2022-11-24T19:16:32.552Z,13.69
2022-11-24T19:19:00.032Z,13.71
2022-11-24T19:21:30.357Z,13.69
2022-11-24T19:24:02.855Z,13.67
2022-11-24T19:26:30.783Z,13.67
2022-11-24T19:28:57.513Z,13.64
2022-11-24T19:31:24.319Z,13.64
2022-11-24T19:33:52.916Z,13.63
2022-11-24T19:36:19.759Z,13.63
2022-11-24T19:38:51.361Z,13.65
2022-11-24T19:41:19.626Z,13.65
2022-11-24T19:43:47.014Z,13.64
2022-11-24T19:46:16.513Z,13.62
2022-11-24T19:48:45.355Z,13.62
2022-11-24T19:51:14.477Z,13.61
2022-11-24T19:53:41.253Z,13.62
2022-11-24T19:56:13.759Z,13.59
2022-11-24T19:58:41.117Z,13.61
2022-11-24T20:01:08.180Z,13.60
2022-11-24T20:03:35.680Z,13.59
2022-11-24T20:06:02.309Z,13.59
2022-11-24T20:08:30.739Z,13.58
2022-11-24T20:11:27.557Z,13.54
2022-11-24T20:13:54.188Z,13.56
2022-11-24T20:16:29.588Z,13.55
2022-11-24T20:18:58.778Z,13.53
2022-11-24T20:21:28.747Z,13.51
2022-11-24T20:23:58.038Z,13.51
2022-11-24T20:26:28.037Z,13.49
2022-11-24T20:28:56.478Z,13.48
2022-11-24T20:31:26.158Z,13.45
2022-11-24T20:33:52.558Z,13.45
2022-11-24T20:36:22.538Z,13.42
2022-11-24T20:38:51.212Z,13.40
2022-11-24T20:41:20.671Z,13.38
2022-11-24T20:43:47.879Z,13.35
2022-11-24T20:46:19.848Z,13.32
2022-11-24T20:48:46.415Z,13.31
2022-11-24T20:51:16.323Z,13.28
2022-11-24T20:53:43.654Z,13.25
2022-11-24T20:56:17.549Z,13.24
2022-11-24T20:58:44.084Z,13.23
2022-11-24T21:01:15.549Z,13.20
2022-11-24T21:03:43.605Z,13.20
2022-11-24T21:06:11.958Z,13.20
2022-11-24T21:08:39.798Z,13.21
2022-11-24T21:11:07.595Z,13.20
2022-11-24T21:13:36.264Z,13.20
2022-11-24T21:16:11.941Z,13.22
2022-11-24T21:18:38.467Z,13.25
2022-11-24T21:21:04.945Z,13.23
2022-11-24T21:23:31.307Z,13.21
2022-11-24T21:26:05.319Z,13.20
2022-11-24T21:28:33.403Z,13.21
2022-11-24T21:31:08.431Z,13.18
2022-11-24T21:33:43.197Z,13.18
2022-11-24T21:36:09.778Z,13.18
2022-11-24T21:38:36.182Z,13.18
2022-11-24T21:41:06.596Z,13.15
2022-11-24T21:43:34.640Z,13.13
2022-11-24T21:46:09.190Z,13.08
2022-11-24T21:48:36.792Z,13.06
2022-11-24T21:51:06.992Z,13.02
2022-11-24T21:53:36.158Z,12.97
2022-11-24T21:56:05.721Z,12.90
2022-11-24T21:58:33.461Z,12.83
2022-11-24T22:01:08.942Z,12.75
2022-11-24T22:03:35.838Z,12.69
2022-11-24T22:06:03.262Z,12.64
2022-11-24T22:08:30.738Z,12.56
2022-11-24T22:11:06.032Z,12.46
2022-11-24T22:13:32.986Z,12.42
2022-11-24T22:16:03.774Z,12.35
2022-11-24T22:18:32.958Z,12.30
2022-11-24T22:20:59.716Z,12.26
2022-11-24T22:23:26.429Z,12.21
2022-11-24T22:25:52.792Z,12.16
2022-11-24T22:28:20.736Z,12.11
2022-11-24T22:30:47.159Z,12.07
2022-11-24T22:33:13.701Z,12.02
2022-11-24T22:35:40.141Z,11.99
2022-11-24T22:38:06.560Z,11.95
2022-11-24T22:40:33.916Z,11.91
2022-11-24T22:43:00.297Z,11.89
2022-11-24T22:45:26.853Z,11.85
2022-11-24T22:47:55.121Z,11.81
2022-11-24T22:50:21.676Z,11.80
2022-11-24T22:52:49.908Z,11.77
2022-11-24T22:55:16.584Z,11.76
2022-11-24T22:57:47.932Z,11.75
2022-11-24T23:00:15.482Z,11.76
2022-11-24T23:02:42.129Z,11.78
2022-11-24T23:05:09.073Z,11.82
2022-11-24T23:07:35.645Z,11.85
2022-11-24T23:10:02.508Z,11.92
2022-11-24T23:12:28.915Z,11.97
2022-11-24T23:14:55.417Z,12.04
2022-11-24T23:17:21.760Z,12.11
2022-11-24T23:19:48.138Z,12.16
2022-11-24T23:22:14.524Z,12.22
2022-11-24T23:24:41.025Z,12.28
2022-11-24T23:27:07.585Z,12.35
2022-11-24T23:29:34.001Z,12.42
2022-11-24T23:32:00.525Z,12.46
2022-11-24T23:34:27.080Z,12.55
2022-11-24T23:36:53.420Z,12.59
2022-11-24T23:39:19.718Z,12.65
2022-11-24T23:41:46.052Z,12.71
2022-11-24T23:44:12.345Z,12.76
2022-11-24T23:46:38.666Z,12.83
2022-11-24T23:49:05.048Z,12.89
2022-11-24T23:51:33.369Z,12.94
2022-11-24T23:54:00.736Z,12.99
2022-11-24T23:56:32.252Z,13.04
2022-11-24T23:58:59.133Z,13.08
